createdAt,value
2023-03-24T00:01:03.669Z,97732.53
2023-03-24T00:02:07.381Z,97725.84
2023-03-24T00:03:10.831Z,97727.75
2023-03-24T00:04:12.872Z,97719.97
2023-03-24T00:05:21.732Z,97712.38
2023-03-24T00:06:23.684Z,97712.66
2023-03-24T00:07:26.184Z,97706.47
2023-03-24T00:08:36.545Z,97700.00
2023-03-24T00:09:38.657Z,97698.41
2023-03-24T00:10:42.614Z,97695.19
2023-03-24T00:11:45.435Z,97698.19
2023-03-24T00:12:48.647Z,97702.78
2023-03-24T00:13:50.927Z,97702.78
2023-03-24T00:14:55.707Z,97709.28
2023-03-24T00:15:58.576Z,97712.78
2023-03-24T00:17:00.575Z,97707.38
2023-03-24T00:18:02.460Z,97705.78
2023-03-24T00:19:04.934Z,97710.69
2023-03-24T00:20:16.074Z,97702.78
2023-03-24T00:21:18.360Z,97694.22
2023-03-24T00:22:21.294Z,97697.22
2023-03-24T00:23:23.571Z,97701.81
2023-03-24T00:24:25.514Z,97695.63
2023-03-24T00:25:33.833Z,97699.91
2023-03-24T00:26:38.544Z,97702.13
2023-03-24T00:27:40.387Z,97698.94
2023-03-24T00:28:48.989Z,97690.25
2023-03-24T00:29:50.887Z,97687.06
2023-03-24T00:30:52.771Z,97699.22
2023-03-24T00:31:55.292Z,97696.53
2023-03-24T00:32:58.996Z,97677.97
2023-03-24T00:34:02.918Z,97674.97
2023-03-24T00:35:09.798Z,97684.38
2023-03-24T00:36:12.622Z,97686.38
2023-03-24T00:37:14.495Z,97675.59
2023-03-24T00:38:16.368Z,97676.38
2023-03-24T00:39:20.537Z,97677.97
2023-03-24T00:40:22.622Z,97676.38
2023-03-24T00:41:26.951Z,97667.50
2023-03-24T00:42:29.340Z,97668.59
2023-03-24T00:43:31.650Z,97663.22
2023-03-24T00:44:34.338Z,97660.53
2023-03-24T00:45:36.270Z,97667.03
2023-03-24T00:46:39.003Z,97662.72
2023-03-24T00:47:41.409Z,97663.53
2023-03-24T00:48:43.308Z,97646.06
2023-03-24T00:49:45.163Z,97653.84
2023-03-24T00:50:52.100Z,97647.66
2023-03-24T00:51:54.023Z,97650.69
2023-03-24T00:52:58.179Z,97649.88
2023-03-24T00:54:01.864Z,97651.47
2023-03-24T00:55:06.530Z,97653.38
2023-03-24T00:56:09.137Z,97640.47
2023-03-24T00:57:13.007Z,97641.59
2023-03-24T00:58:18.199Z,97638.59
2023-03-24T00:59:21.331Z,97643.19
2023-03-24T01:00:26.224Z,97635.88
2023-03-24T01:01:35.406Z,97640.47
2023-03-24T01:02:37.885Z,97633.50
2023-03-24T01:03:48.145Z,97628.13
2023-03-24T01:04:56.413Z,97625.41
2023-03-24T01:06:03.991Z,97624.63
2023-03-24T01:07:10.711Z,97621.44
2023-03-24T01:08:12.917Z,97615.56
2023-03-24T01:09:14.732Z,97620.97
2023-03-24T01:10:17.136Z,97612.88
2023-03-24T01:11:19.114Z,97607.50
2023-03-24T01:12:21.759Z,97610.50
2023-03-24T01:13:29.734Z,97610.97
2023-03-24T01:14:32.903Z,97605.09
2023-03-24T01:15:36.528Z,97611.28
2023-03-24T01:16:38.932Z,97600.03
2023-03-24T01:17:41.095Z,97603.50
2023-03-24T01:18:43.030Z,97592.22
2023-03-24T01:19:45.339Z,97601.41
2023-03-24T01:20:51.449Z,97600.31
2023-03-24T01:21:54.476Z,97599.50
2023-03-24T01:22:56.322Z,97598.41
2023-03-24T01:23:58.133Z,97598.72
2023-03-24T01:25:00.799Z,97599.03
2023-03-24T01:26:10.563Z,97589.53
2023-03-24T01:27:13.261Z,97592.53
2023-03-24T01:28:24.721Z,97588.75
2023-03-24T01:29:26.580Z,97590.94
2023-03-24T01:30:30.515Z,97589.84
2023-03-24T01:31:34.101Z,97591.25
2023-03-24T01:32:36.230Z,97583.97
2023-03-24T01:33:38.736Z,97583.47
2023-03-24T01:34:40.675Z,97578.88
2023-03-24T01:35:42.649Z,97581.09
2023-03-24T01:36:44.630Z,97579.19
2023-03-24T01:37:46.645Z,97573.03
2023-03-24T01:38:51.402Z,97579.50
2023-03-24T01:39:53.342Z,97580.31
2023-03-24T01:40:55.480Z,97572.53
2023-03-24T01:41:57.526Z,97582.22
2023-03-24T01:43:00.193Z,97580.63
2023-03-24T01:44:24.416Z,97579.69
2023-03-24T01:45:41.455Z,97579.69
2023-03-24T01:46:43.316Z,97579.50
2023-03-24T01:47:45.346Z,97575.50
2023-03-24T01:49:06.606Z,97581.41
2023-03-24T01:50:08.542Z,97572.81
2023-03-24T01:51:30.644Z,97582.00
2023-03-24T01:52:36.721Z,97575.50
2023-03-24T01:53:47.536Z,97586.28
2023-03-24T01:55:03.653Z,97582.78
2023-03-24T01:56:07.669Z,97580.72
2023-03-24T01:57:18.947Z,97574.22
2023-03-24T01:58:25.248Z,97585.00
2023-03-24T01:59:34.660Z,97572.34
2023-03-24T02:00:37.967Z,97572.94
2023-03-24T02:01:40.082Z,97574.38
2023-03-24T02:02:54.965Z,97562.50
2023-03-24T02:04:00.212Z,97570.25
2023-03-24T02:05:12.085Z,97563.28
2023-03-24T02:06:16.341Z,97560.91
2023-03-24T02:08:12.922Z,97554.28
2023-03-24T02:09:15.493Z,97557.41
2023-03-24T02:10:20.458Z,97555.03
2023-03-24T02:11:27.107Z,97552.63
2023-03-24T02:12:32.187Z,97555.31
2023-03-24T02:13:34.212Z,97541.84
2023-03-24T02:14:36.449Z,97550.22
2023-03-24T02:16:14.046Z,97553.31
2023-03-24T02:17:41.024Z,97548.22
2023-03-24T02:19:19.672Z,97550.44
2023-03-24T02:20:51.956Z,97553.41
2023-03-24T02:22:28.802Z,97561.22
2023-03-24T02:23:50.109Z,97559.22
2023-03-24T02:25:16.410Z,97547.34
2023-03-24T02:27:02.263Z,97544.06
2023-03-24T02:29:05.177Z,97541.34
2023-03-24T02:30:28.325Z,97537.78
2023-03-24T02:31:51.160Z,97531.28
2023-03-24T02:33:32.634Z,97544.47
2023-03-24T02:35:12.208Z,97530.47
2023-03-24T02:36:26.278Z,97527.94
2023-03-24T02:37:56.377Z,97539.50
2023-03-24T02:39:42.669Z,97538.69
2023-03-24T02:40:56.313Z,97537.41
2023-03-24T02:42:32.285Z,97525.22
2023-03-24T02:43:55.191Z,97529.34
2023-03-24T02:45:29.625Z,97532.03
2023-03-24T02:46:42.620Z,97527.53
2023-03-24T02:48:41.541Z,97540.41
2023-03-24T02:50:14.622Z,97536.63
2023-03-24T02:52:12.925Z,97531.53
2023-03-24T02:54:17.787Z,97532.81
2023-03-24T02:55:40.785Z,97525.66
2023-03-24T02:56:50.446Z,97532.75
2023-03-24T02:58:08.299Z,97530.38
2023-03-24T02:59:50.788Z,97520.41
2023-03-24T03:01:05.590Z,97531.16
2023-03-24T03:02:19.267Z,97526.88
2023-03-24T03:03:38.354Z,97522.59
2023-03-24T03:04:52.411Z,97529.56
2023-03-24T03:06:07.167Z,97523.97
2023-03-24T03:07:12.744Z,97523.19
2023-03-24T03:08:21.527Z,97520.22
2023-03-24T03:09:26.700Z,97517.00
2023-03-24T03:10:36.469Z,97514.03
2023-03-24T03:11:48.094Z,97520.50
2023-03-24T03:12:57.282Z,97523.69
2023-03-24T03:14:25.876Z,97523.09
2023-03-24T03:15:39.728Z,97521.81
2023-03-24T03:16:59.970Z,97519.13
2023-03-24T03:18:22.895Z,97516.41
2023-03-24T03:19:52.675Z,97513.72
2023-03-24T03:21:02.077Z,97519.41
2023-03-24T03:22:12.121Z,97516.72
2023-03-24T03:23:19.026Z,97517.81
2023-03-24T03:24:39.109Z,97508.94
2023-03-24T03:25:50.292Z,97500.84
2023-03-24T03:26:57.461Z,97502.75
2023-03-24T03:28:03.658Z,97499.56
2023-03-24T03:29:22.150Z,97498.47
2023-03-24T03:30:41.777Z,97487.41
2023-03-24T03:31:53.406Z,97501.16
2023-03-24T03:33:25.122Z,97496.25
2023-03-24T03:34:47.064Z,97497.38
2023-03-24T03:35:59.222Z,97492.28
2023-03-24T03:37:11.101Z,97499.09
2023-03-24T03:38:31.473Z,97492.59
2023-03-24T03:39:40.796Z,97493.72
2023-03-24T03:40:52.752Z,97494.81
2023-03-24T03:41:56.002Z,97488.63
2023-03-24T03:42:58.568Z,97488.94
2023-03-24T03:44:01.407Z,97483.88
2023-03-24T03:45:03.931Z,97491.13
2023-03-24T03:46:07.298Z,97480.34
2023-03-24T03:47:09.353Z,97478.75
2023-03-24T03:48:11.650Z,97479.88
2023-03-24T03:49:13.698Z,97480.06
2023-03-24T03:50:15.959Z,97472.59
2023-03-24T03:51:18.375Z,97480.34
2023-03-24T03:52:21.750Z,97491.13
2023-03-24T03:53:31.737Z,97493.53
2023-03-24T03:54:36.124Z,97497.00
2023-03-24T03:55:38.282Z,97497.31
2023-03-24T03:56:41.945Z,97492.22
2023-03-24T03:57:44.668Z,97496.00
2023-03-24T03:58:48.496Z,97497.91
2023-03-24T03:59:50.368Z,97497.13
2023-03-24T04:00:57.688Z,97497.59
2023-03-24T04:02:26.854Z,97510.97
2023-03-24T04:04:09.085Z,97498.00
2023-03-24T04:05:26.534Z,97512.06
2023-03-24T04:06:50.397Z,97502.41
2023-03-24T04:08:16.359Z,97508.56
2023-03-24T04:09:46.951Z,97510.47
2023-03-24T04:11:22.743Z,97516.97
2023-03-24T04:12:57.288Z,97517.75
2023-03-24T04:14:09.584Z,97524.03
2023-03-24T04:15:40.461Z,97519.44
2023-03-24T04:17:12.623Z,97524.34
2023-03-24T04:18:40.151Z,97524.81
2023-03-24T04:20:15.089Z,97534.78
2023-03-24T04:21:48.554Z,97535.41
2023-03-24T04:23:14.865Z,97529.22
2023-03-24T04:24:40.240Z,97535.41
2023-03-24T04:26:18.072Z,97529.22
2023-03-24T04:27:46.534Z,97531.94
2023-03-24T04:29:17.860Z,97533.03
2023-03-24T04:30:47.774Z,97531.13
2023-03-24T04:32:11.342Z,97529.84
2023-03-24T04:33:22.597Z,97527.25
2023-03-24T04:34:36.042Z,97522.66
2023-03-24T04:35:46.505Z,97521.06
2023-03-24T04:37:02.713Z,97526.47
2023-03-24T04:38:13.003Z,97524.88
2023-03-24T04:39:28.080Z,97516.78
2023-03-24T04:40:34.287Z,97520.59
2023-03-24T04:41:37.796Z,97513.63
2023-03-24T04:42:49.073Z,97514.91
2023-03-24T04:43:53.197Z,97515.22
2023-03-24T04:44:57.795Z,97506.34
2023-03-24T04:45:59.710Z,97516.09
2023-03-24T04:47:04.728Z,97510.94
2023-03-24T04:48:10.844Z,97521.88
2023-03-24T04:49:12.698Z,97520.91
2023-03-24T04:50:14.775Z,97525.00
2023-03-24T04:51:20.549Z,97527.88
2023-03-24T04:52:22.356Z,97537.84
2023-03-24T04:53:24.946Z,97538.94
2023-03-24T04:54:28.002Z,97540.53
2023-03-24T04:55:50.986Z,97546.56
2023-03-24T04:56:56.935Z,97556.84
2023-03-24T04:57:59.114Z,97559.38
2023-03-24T04:59:01.016Z,97564.75
2023-03-24T05:00:08.210Z,97576.31
2023-03-24T05:01:10.195Z,97579.00
2023-03-24T05:02:12.444Z,97576.59
2023-03-24T05:03:16.118Z,97586.28
2023-03-24T05:04:23.916Z,97590.25
2023-03-24T05:05:25.822Z,97605.59
2023-03-24T05:06:27.696Z,97610.97
2023-03-24T05:07:29.556Z,97603.22
2023-03-24T05:08:31.793Z,97605.59
2023-03-24T05:09:33.791Z,97607.97
2023-03-24T05:10:36.580Z,97609.88
2023-03-24T05:11:38.379Z,97612.56
2023-03-24T05:12:40.144Z,97613.06
2023-03-24T05:13:41.924Z,97620.34
2023-03-24T05:14:43.690Z,97623.03
2023-03-24T05:15:46.478Z,97634.28
2023-03-24T05:16:48.625Z,97638.56
2023-03-24T05:17:51.814Z,97643.94
2023-03-24T05:18:53.687Z,97650.94
2023-03-24T05:19:55.421Z,97653.34
2023-03-24T05:20:57.339Z,97665.69
2023-03-24T05:21:59.168Z,97667.28
2023-03-24T05:23:01.848Z,97664.59
2023-03-24T05:24:04.048Z,97678.06
2023-03-24T05:25:06.692Z,97667.28
2023-03-24T05:26:09.310Z,97664.28
2023-03-24T05:27:11.201Z,97671.25
2023-03-24T05:28:12.978Z,97661.59
2023-03-24T05:29:14.803Z,97670.16
2023-03-24T05:30:17.529Z,97671.75
2023-03-24T05:31:19.534Z,97668.25
2023-03-24T05:32:21.329Z,97668.75
2023-03-24T05:33:23.306Z,97676.03
2023-03-24T05:34:25.350Z,97671.44
2023-03-24T05:35:27.200Z,97665.78
2023-03-24T05:36:29.006Z,97666.59
2023-03-24T05:37:31.148Z,97666.59
2023-03-24T05:38:32.955Z,97657.72
2023-03-24T05:39:34.698Z,97655.50
2023-03-24T05:40:37.407Z,97653.63
2023-03-24T05:41:39.221Z,97663.91
2023-03-24T05:42:41.355Z,97660.59
2023-03-24T05:43:43.130Z,97655.22
2023-03-24T05:44:45.782Z,97653.63
2023-03-24T05:45:47.925Z,97652.22
2023-03-24T05:46:50.065Z,97655.69
2023-03-24T05:47:52.073Z,97660.59
2023-03-24T05:48:53.898Z,97657.59
2023-03-24T05:49:55.698Z,97653.81
2023-03-24T05:50:57.552Z,97658.09
2023-03-24T05:52:00.311Z,97653.81
2023-03-24T05:53:02.131Z,97655.41
2023-03-24T05:54:06.036Z,97652.22
2023-03-24T05:55:09.456Z,97650.81
2023-03-24T05:56:11.960Z,97653.50
2023-03-24T05:57:16.544Z,97653.19
2023-03-24T05:58:19.987Z,97657.78
2023-03-24T05:59:22.868Z,97648.91
2023-03-24T06:00:24.731Z,97651.31
2023-03-24T06:01:28.841Z,97655.88
2023-03-24T06:02:30.705Z,97655.09
2023-03-24T06:03:34.685Z,97652.91
2023-03-24T06:04:36.992Z,97653.72
2023-03-24T06:05:38.878Z,97651.81
2023-03-24T06:06:41.068Z,97653.72
2023-03-24T06:07:43.384Z,97645.63
2023-03-24T06:08:45.329Z,97650.72
2023-03-24T06:09:47.505Z,97649.63
2023-03-24T06:10:49.576Z,97652.31
2023-03-24T06:11:51.474Z,97659.59
2023-03-24T06:12:55.373Z,97655.00
2023-03-24T06:14:00.119Z,97663.88
2023-03-24T06:15:02.076Z,97655.00
2023-03-24T06:16:04.166Z,97653.91
2023-03-24T06:17:08.370Z,97651.22
2023-03-24T06:18:10.171Z,97652.31
2023-03-24T06:19:11.936Z,97647.72
2023-03-24T06:20:18.602Z,97647.72
2023-03-24T06:21:22.029Z,97649.31
2023-03-24T06:22:24.119Z,97645.81
2023-03-24T06:23:28.249Z,97638.22
2023-03-24T06:24:30.522Z,97635.84
2023-03-24T06:25:33.625Z,97635.84
2023-03-24T06:26:35.475Z,97638.53
2023-03-24T06:27:38.086Z,97640.13
2023-03-24T06:28:42.198Z,97646.63
2023-03-24T06:29:44.054Z,97639.94
2023-03-24T06:30:47.494Z,97639.94
2023-03-24T06:31:49.370Z,97645.81
2023-03-24T06:32:51.246Z,97644.22
2023-03-24T06:33:53.663Z,97642.63
2023-03-24T06:34:55.639Z,97642.63
2023-03-24T06:35:57.613Z,97649.63
2023-03-24T06:36:59.528Z,97643.13
2023-03-24T06:38:01.504Z,97641.53
2023-03-24T06:39:05.985Z,97645.03
2023-03-24T06:40:11.190Z,97638.53
2023-03-24T06:41:13.257Z,97645.81
2023-03-24T06:42:16.017Z,97640.44
2023-03-24T06:43:17.801Z,97635.06
2023-03-24T06:44:19.629Z,97635.34
2023-03-24T06:45:21.472Z,97642.34
2023-03-24T06:46:24.081Z,97647.41
2023-03-24T06:47:26.041Z,97642.81
2023-03-24T06:48:28.288Z,97641.22
2023-03-24T06:49:30.206Z,97638.84
2023-03-24T06:50:34.562Z,97638.84
2023-03-24T06:51:36.341Z,97635.84
2023-03-24T06:52:38.407Z,97640.13
2023-03-24T06:53:41.305Z,97651.22
2023-03-24T06:54:43.135Z,97643.94
2023-03-24T06:55:45.188Z,97651.50
2023-03-24T06:56:47.213Z,97638.84
2023-03-24T06:57:49.088Z,97648.72
2023-03-24T06:58:51.563Z,97645.63
2023-03-24T06:59:53.418Z,97647.72
2023-03-24T07:00:55.275Z,97642.63
2023-03-24T07:01:57.112Z,97646.34
2023-03-24T07:02:59.103Z,97651.03
2023-03-24T07:04:01.308Z,97649.63
2023-03-24T07:05:09.580Z,97650.00
2023-03-24T07:06:11.564Z,97650.41
2023-03-24T07:07:41.466Z,97654.09
2023-03-24T07:08:38.595Z,97653.50
2023-03-24T07:09:40.686Z,97650.50
2023-03-24T07:10:43.333Z,97654.78
2023-03-24T07:11:45.501Z,97652.09
2023-03-24T07:12:48.264Z,97648.31
2023-03-24T07:13:50.256Z,97643.72
2023-03-24T07:14:52.126Z,97647.19
2023-03-24T07:15:54.268Z,97655.28
2023-03-24T07:16:56.270Z,97654.97
2023-03-24T07:17:58.201Z,97658.47
2023-03-24T07:19:01.135Z,97663.03
2023-03-24T07:20:07.951Z,97658.16
2023-03-24T07:21:09.854Z,97665.44
2023-03-24T07:22:12.357Z,97666.53
2023-03-24T07:23:14.779Z,97667.03
2023-03-24T07:24:17.744Z,97667.81
2023-03-24T07:25:20.127Z,97671.31
2023-03-24T07:26:22.035Z,97672.94
2023-03-24T07:27:23.858Z,97670.72
2023-03-24T07:28:26.451Z,97668.34
2023-03-24T07:29:28.379Z,97671.53
2023-03-24T07:30:39.319Z,97678.50
2023-03-24T07:31:42.090Z,97677.69
2023-03-24T07:32:44.018Z,97670.09
2023-03-24T07:33:46.306Z,97674.41
2023-03-24T07:34:49.672Z,97679.78
2023-03-24T07:35:57.098Z,97681.09
2023-03-24T07:37:00.695Z,97680.31
2023-03-24T07:38:03.785Z,97679.19
2023-03-24T07:39:05.563Z,97677.59
2023-03-24T07:40:11.761Z,97680.31
2023-03-24T07:41:13.485Z,97678.13
2023-03-24T07:42:15.225Z,97681.63
2023-03-24T07:43:17.162Z,97682.41
2023-03-24T07:44:19.095Z,97688.28
2023-03-24T07:45:20.972Z,97682.91
2023-03-24T07:46:22.938Z,97684.50
2023-03-24T07:47:26.082Z,97689.56
2023-03-24T07:48:29.381Z,97693.06
2023-03-24T07:49:31.421Z,97692.75
2023-03-24T07:50:33.451Z,97686.09
2023-03-24T07:51:38.544Z,97692.13
2023-03-24T07:52:47.072Z,97688.66
2023-03-24T07:53:48.937Z,97690.28
2023-03-24T07:54:50.760Z,97687.56
2023-03-24T07:55:52.844Z,97697.25
2023-03-24T07:56:54.868Z,97691.56
2023-03-24T07:57:56.743Z,97693.16
2023-03-24T07:58:58.608Z,97691.25
2023-03-24T08:00:00.759Z,97694.44
2023-03-24T08:01:02.663Z,97692.53
2023-03-24T08:02:05.207Z,97690.13
2023-03-24T08:03:09.548Z,97686.53
2023-03-24T08:04:14.449Z,97692.44
2023-03-24T08:05:18.378Z,97695.41
2023-03-24T08:06:20.499Z,97689.22
2023-03-24T08:07:22.267Z,97687.03
2023-03-24T08:08:24.173Z,97687.31
2023-03-24T08:09:26.154Z,97687.84
2023-03-24T08:10:30.833Z,97685.63
2023-03-24T08:11:32.943Z,97679.13
2023-03-24T08:12:34.742Z,97677.25
2023-03-24T08:13:36.555Z,97671.84
2023-03-24T08:14:38.334Z,97673.13
2023-03-24T08:15:40.324Z,97670.44
2023-03-24T08:16:42.257Z,97677.41
2023-03-24T08:17:44.760Z,97666.63
2023-03-24T08:18:48.621Z,97663.94
2023-03-24T08:20:00.012Z,97660.13
2023-03-24T08:21:03.697Z,97653.84
2023-03-24T08:22:05.495Z,97653.84
2023-03-24T08:23:08.410Z,97649.25
2023-03-24T08:24:10.296Z,97637.69
2023-03-24T08:25:13.109Z,97632.78
2023-03-24T08:26:15.208Z,97621.69
2023-03-24T08:27:17.333Z,97610.91
2023-03-24T08:28:19.515Z,97597.91
2023-03-24T08:29:21.291Z,97585.22
2023-03-24T08:30:28.092Z,97562.56
2023-03-24T08:31:35.734Z,97583.22
2023-03-24T08:32:38.201Z,97608.59
2023-03-24T08:33:40.452Z,97624.28
2023-03-24T08:34:42.376Z,97625.56
2023-03-24T08:35:46.643Z,97644.09
2023-03-24T08:36:49.006Z,97644.09
2023-03-24T08:37:51.609Z,97638.72
2023-03-24T08:38:55.621Z,97643.16
2023-03-24T08:39:58.907Z,97645.88
2023-03-24T08:41:06.573Z,97641.78
2023-03-24T08:42:08.448Z,97634.81
2023-03-24T08:43:15.624Z,97647.97
2023-03-24T08:44:17.613Z,97645.28
2023-03-24T08:45:22.226Z,97654.34
2023-03-24T08:46:24.125Z,97646.56
2023-03-24T08:47:26.328Z,97649.56
2023-03-24T08:48:30.455Z,97663.72
2023-03-24T08:49:32.281Z,97662.94
2023-03-24T08:50:38.780Z,97664.25
2023-03-24T08:51:41.146Z,97657.22
2023-03-24T08:52:42.980Z,97662.63
2023-03-24T08:53:44.967Z,97657.22
2023-03-24T08:54:47.023Z,97658.22
2023-03-24T08:55:49.160Z,97665.81
2023-03-24T08:56:51.265Z,97669.81
2023-03-24T08:57:53.595Z,97662.50
2023-03-24T08:58:55.533Z,97669.81
2023-03-24T08:59:57.585Z,97665.69
2023-03-24T09:00:59.455Z,97667.28
2023-03-24T09:02:01.732Z,97675.84
2023-03-24T09:03:03.705Z,97671.25
2023-03-24T09:04:05.661Z,97675.06
2023-03-24T09:05:08.171Z,97679.84
2023-03-24T09:06:10.589Z,97674.94
2023-03-24T09:07:12.933Z,97682.25
2023-03-24T09:08:17.976Z,97684.63
2023-03-24T09:09:19.764Z,97682.72
2023-03-24T09:10:22.616Z,97687.31
2023-03-24T09:11:24.859Z,97681.63
2023-03-24T09:12:26.861Z,97681.78
2023-03-24T09:13:28.863Z,97680.50
2023-03-24T09:14:30.977Z,97673.69
2023-03-24T09:15:33.392Z,97674.50
2023-03-24T09:16:35.248Z,97679.59
2023-03-24T09:17:38.064Z,97678.19
2023-03-24T09:18:40.313Z,97663.91
2023-03-24T09:19:43.364Z,97672.78
2023-03-24T09:20:46.749Z,97676.59
2023-03-24T09:21:49.151Z,97675.00
2023-03-24T09:22:51.270Z,97679.59
2023-03-24T09:23:53.112Z,97679.88
2023-03-24T09:24:54.877Z,97687.19
2023-03-24T09:25:57.197Z,97688.59
2023-03-24T09:26:58.994Z,97670.03
2023-03-24T09:28:01.687Z,97678.13
2023-03-24T09:29:04.029Z,97671.94
2023-03-24T09:30:07.946Z,97679.53
2023-03-24T09:31:10.655Z,97672.56
2023-03-24T09:32:12.533Z,97675.25
2023-03-24T09:33:14.428Z,97672.03
2023-03-24T09:34:16.581Z,97676.47
2023-03-24T09:35:18.496Z,97684.25
2023-03-24T09:36:23.297Z,97681.56
2023-03-24T09:37:25.566Z,97686.47
2023-03-24T09:38:28.349Z,97678.22
2023-03-24T09:39:30.179Z,97677.59
2023-03-24T09:40:37.907Z,97679.47
2023-03-24T09:41:45.613Z,97677.09
2023-03-24T09:42:58.125Z,97684.09
2023-03-24T09:44:27.420Z,97690.44
2023-03-24T09:45:36.629Z,97689.00
2023-03-24T09:46:47.733Z,97685.81
2023-03-24T09:47:58.820Z,97686.28
2023-03-24T09:49:00.845Z,97688.31
2023-03-24T09:50:17.847Z,97676.91
2023-03-24T09:51:23.811Z,97676.41
2023-03-24T09:52:39.975Z,97678.81
2023-03-24T09:54:05.683Z,97670.72
2023-03-24T09:55:17.738Z,97665.94
2023-03-24T09:56:23.589Z,97670.53
2023-03-24T09:57:30.680Z,97668.63
2023-03-24T09:58:33.746Z,97667.94
2023-03-24T09:59:39.742Z,97668.44
2023-03-24T10:00:43.040Z,97671.44
2023-03-24T10:01:46.077Z,97680.63
2023-03-24T10:02:51.062Z,97670.34
2023-03-24T10:03:59.190Z,97683.81
2023-03-24T10:05:01.345Z,97674.13
2023-03-24T10:06:23.013Z,97671.94
2023-03-24T10:07:49.291Z,97675.13
2023-03-24T10:09:27.207Z,97673.22
2023-03-24T10:11:20.000Z,97669.75
2023-03-24T10:12:38.383Z,97670.03
2023-03-24T10:14:10.538Z,97661.94
2023-03-24T10:15:41.205Z,97673.03
2023-03-24T10:17:18.136Z,97670.34
2023-03-24T10:19:04.750Z,97677.94
2023-03-24T10:20:34.591Z,97672.53
2023-03-24T10:21:43.801Z,97676.63
2023-03-24T10:22:53.121Z,97673.13
2023-03-24T10:24:17.138Z,97682.53
2023-03-24T10:25:37.493Z,97669.34
2023-03-24T10:26:52.660Z,97679.84
2023-03-24T10:28:18.650Z,97672.53
2023-03-24T10:29:31.026Z,97671.44
2023-03-24T10:30:41.413Z,97669.84
2023-03-24T10:31:53.029Z,97668.75
2023-03-24T10:32:55.043Z,97659.34
2023-03-24T10:33:57.737Z,97664.75
2023-03-24T10:35:09.861Z,97664.75
2023-03-24T10:36:18.132Z,97672.53
2023-03-24T10:37:21.117Z,97666.03
2023-03-24T10:38:24.132Z,97668.75
2023-03-24T10:39:38.081Z,97676.84
2023-03-24T10:40:47.745Z,97666.03
2023-03-24T10:41:51.568Z,97666.34
2023-03-24T10:43:07.143Z,97672.03
2023-03-24T10:44:14.087Z,97663.47
2023-03-24T10:45:32.746Z,97666.94
2023-03-24T10:46:38.263Z,97668.19
2023-03-24T10:47:42.626Z,97666.41
2023-03-24T10:48:49.725Z,97665.59
2023-03-24T10:49:57.993Z,97672.41
2023-03-24T10:51:00.228Z,97667.63
2023-03-24T10:52:09.380Z,97664.47
2023-03-24T10:53:21.091Z,97658.75
2023-03-24T10:54:26.423Z,97658.25
2023-03-24T10:55:43.563Z,97662.25
2023-03-24T10:57:03.724Z,97663.84
2023-03-24T10:58:29.267Z,97662.72
2023-03-24T10:59:47.054Z,97664.63
2023-03-24T11:00:49.575Z,97666.84
2023-03-24T11:02:00.675Z,97674.63
2023-03-24T11:03:08.550Z,97681.59
2023-03-24T11:04:16.632Z,97684.78
2023-03-24T11:05:29.593Z,97677.78
2023-03-24T11:06:32.460Z,97679.38
2023-03-24T11:07:48.913Z,97681.47
2023-03-24T11:09:19.509Z,97683.25
2023-03-24T11:10:26.057Z,97691.66
2023-03-24T11:11:32.095Z,97690.78
2023-03-24T11:12:44.160Z,97693.84
2023-03-24T11:13:57.577Z,97691.34
2023-03-24T11:15:29.265Z,97683.44
2023-03-24T11:16:38.835Z,97678.34
2023-03-24T11:17:42.362Z,97679.94
2023-03-24T11:18:57.218Z,97676.16
2023-03-24T11:19:59.151Z,97681.84
2023-03-24T11:21:05.220Z,97680.75
2023-03-24T11:22:08.780Z,97683.44
2023-03-24T11:23:10.615Z,97683.44
2023-03-24T11:24:20.159Z,97681.22
2023-03-24T11:25:33.813Z,97687.09
2023-03-24T11:26:39.231Z,97692.50
2023-03-24T11:27:45.417Z,97696.00
2023-03-24T11:28:54.733Z,97686.50
2023-03-24T11:29:56.601Z,97690.31
2023-03-24T11:31:07.964Z,97697.78
2023-03-24T11:32:19.809Z,97690.50
2023-03-24T11:33:35.707Z,97695.59
2023-03-24T11:34:48.876Z,97696.69
2023-03-24T11:35:59.463Z,97701.31
2023-03-24T11:37:24.711Z,97696.88
2023-03-24T11:38:34.910Z,97696.88
2023-03-24T11:39:36.821Z,97688.91
2023-03-24T11:40:52.117Z,97697.50
2023-03-24T11:42:12.095Z,97698.19
2023-03-24T11:43:21.410Z,97694.69
2023-03-24T11:44:26.041Z,97695.78
2023-03-24T11:45:35.604Z,97692.78
2023-03-24T11:46:42.067Z,97695.50
2023-03-24T11:47:44.360Z,97694.69
2023-03-24T11:48:58.781Z,97697.56
2023-03-24T11:50:09.561Z,97706.44
2023-03-24T11:51:23.232Z,97698.03
2023-03-24T11:52:32.489Z,97700.75
2023-03-24T11:53:52.417Z,97704.72
2023-03-24T11:54:54.359Z,97702.16
2023-03-24T11:56:22.257Z,97701.72
2023-03-24T11:57:59.709Z,97699.53
2023-03-24T11:59:44.906Z,97701.91
2023-03-24T12:01:06.295Z,97703.34
2023-03-24T12:02:08.011Z,97703.94
2023-03-24T12:03:29.969Z,97694.25
2023-03-24T12:04:56.564Z,97702.72
2023-03-24T12:06:29.660Z,97701.59
2023-03-24T12:07:46.523Z,97699.00
2023-03-24T12:09:00.451Z,97696.31
2023-03-24T12:10:57.962Z,97697.78
2023-03-24T12:12:21.207Z,97702.72
2023-03-24T12:13:49.636Z,97710.78
2023-03-24T12:15:26.599Z,97702.72
2023-03-24T12:17:03.608Z,97712.06
2023-03-24T12:18:15.783Z,97710.00
2023-03-24T12:19:29.700Z,97703.81
2023-03-24T12:21:12.480Z,97714.47
2023-03-24T12:22:46.663Z,97708.59
2023-03-24T12:24:20.076Z,97716.69
2023-03-24T12:25:59.992Z,97728.56
2023-03-24T12:27:01.983Z,97717.28
2023-03-24T12:28:09.386Z,97716.19
2023-03-24T12:29:59.889Z,97724.16
2023-03-24T12:31:22.760Z,97723.97
2023-03-24T12:32:57.519Z,97726.34
2023-03-24T12:34:11.059Z,97722.38
2023-03-24T12:35:52.149Z,97708.59
2023-03-24T12:37:23.153Z,97713.97
2023-03-24T12:39:09.776Z,97722.75
2023-03-24T12:40:40.229Z,97742.22
2023-03-24T12:41:59.783Z,97747.13
2023-03-24T12:43:32.153Z,97755.72
2023-03-24T12:45:07.813Z,97762.22
2023-03-24T12:46:47.595Z,97770.31
2023-03-24T12:48:43.456Z,97778.88
2023-03-24T12:49:54.094Z,97776.31
2023-03-24T12:51:33.188Z,97790.59
2023-03-24T12:52:38.110Z,97783.94
2023-03-24T12:54:18.781Z,97788.22
2023-03-24T12:55:40.343Z,97785.81
2023-03-24T12:56:48.649Z,97780.72
2023-03-24T12:58:04.089Z,97771.03
2023-03-24T12:59:43.970Z,97782.03
2023-03-24T13:01:04.494Z,97768.84
2023-03-24T13:02:33.731Z,97773.94
2023-03-24T13:03:46.845Z,97771.34
2023-03-24T13:04:54.060Z,97783.22
2023-03-24T13:06:16.209Z,97779.72
2023-03-24T13:07:25.724Z,97772.13
2023-03-24T13:08:30.407Z,97772.25
2023-03-24T13:10:01.706Z,97761.34
2023-03-24T13:11:21.854Z,97759.28
2023-03-24T13:12:45.033Z,97753.38
2023-03-24T13:13:49.874Z,97760.19
2023-03-24T13:15:07.167Z,97756.88
2023-03-24T13:16:26.984Z,97758.78
2023-03-24T13:17:54.420Z,97754.50
2023-03-24T13:19:03.173Z,97750.53
2023-03-24T13:20:13.493Z,97749.41
2023-03-24T13:21:28.497Z,97761.00
2023-03-24T13:22:32.246Z,97754.28
2023-03-24T13:24:09.164Z,97758.47
2023-03-24T13:25:56.307Z,97766.06
2023-03-24T13:27:40.083Z,97766.56
2023-03-24T13:29:22.979Z,97765.28
2023-03-24T13:30:35.238Z,97756.97
2023-03-24T13:32:09.036Z,97763.47
2023-03-24T13:33:20.617Z,97760.78
2023-03-24T13:34:37.986Z,97765.69
2023-03-24T13:36:10.153Z,97762.38
2023-03-24T13:37:25.463Z,97774.56
2023-03-24T13:38:48.269Z,97764.09
2023-03-24T13:39:59.812Z,97776.78
2023-03-24T13:41:11.097Z,97783.25